sensor_id;sensor_type;location;lat;lon;timestamp;pressure;altitude;pressure_sealevel;temperature;humidity
77086;BME280;66014;53.134;18.006;2023-10-08T00:00:50;100850.79;;;12.06;77.53
77086;BME280;66014;53.134;18.006;2023-10-08T00:03:39;100846.50;;;12.08;77.46
77086;BME280;66014;53.134;18.006;2023-10-08T00:06:07;100862.70;;;12.09;77.50
77086;BME280;66014;53.134;18.006;2023-10-08T00:08:39;100869.73;;;12.10;77.43
77086;BME280;66014;53.134;18.006;2023-10-08T00:11:05;100869.86;;;12.10;77.39
77086;BME280;66014;53.134;18.006;2023-10-08T00:13:33;100871.26;;;12.10;77.35
77086;BME280;66014;53.134;18.006;2023-10-08T00:16:07;100867.28;;;12.11;77.39
77086;BME280;66014;53.134;18.006;2023-10-08T00:18:38;100867.19;;;12.10;77.29
77086;BME280;66014;53.134;18.006;2023-10-08T00:21:07;100870.19;;;12.10;77.33
77086;BME280;66014;53.134;18.006;2023-10-08T00:23:37;100880.52;;;12.10;77.22
77086;BME280;66014;53.134;18.006;2023-10-08T00:26:08;100861.92;;;12.10;77.27
77086;BME280;66014;53.134;18.006;2023-10-08T00:28:35;100856.92;;;12.10;77.17
77086;BME280;66014;53.134;18.006;2023-10-08T00:31:02;100855.09;;;12.12;77.16
77086;BME280;66014;53.134;18.006;2023-10-08T00:33:33;100843.91;;;12.13;76.99
77086;BME280;66014;53.134;18.006;2023-10-08T00:36:00;100850.80;;;12.12;76.89
77086;BME280;66014;53.134;18.006;2023-10-08T00:38:32;100861.13;;;12.10;76.76
77086;BME280;66014;53.134;18.006;2023-10-08T00:40:59;100882.30;;;12.09;76.74
77086;BME280;66014;53.134;18.006;2023-10-08T00:43:31;100892.54;;;12.08;76.65
77086;BME280;66014;53.134;18.006;2023-10-08T00:46:02;100902.58;;;12.08;76.34
77086;BME280;66014;53.134;18.006;2023-10-08T00:48:44;100910.05;;;12.05;75.70
77086;BME280;66014;53.134;18.006;2023-10-08T00:51:12;100922.59;;;12.02;75.30
77086;BME280;66014;53.134;18.006;2023-10-08T00:53:54;100923.45;;;11.97;74.41
77086;BME280;66014;53.134;18.006;2023-10-08T00:56:26;100920.84;;;11.91;73.93
77086;BME280;66014;53.134;18.006;2023-10-08T00:59:10;100927.89;;;11.88;73.22
77086;BME280;66014;53.134;18.006;2023-10-08T01:01:42;100914.91;;;11.85;72.75
77086;BME280;66014;53.134;18.006;2023-10-08T01:04:19;100906.64;;;11.81;72.33
77086;BME280;66014;53.134;18.006;2023-10-08T01:06:53;100921.91;;;11.80;72.55
77086;BME280;66014;53.134;18.006;2023-10-08T01:09:28;100919.66;;;11.79;72.44
77086;BME280;66014;53.134;18.006;2023-10-08T01:15:07;100925.75;;;11.76;71.79
77086;BME280;66014;53.134;18.006;2023-10-08T01:17:43;100934.79;;;11.73;71.98
77086;BME280;66014;53.134;18.006;2023-10-08T01:20:24;100939.69;;;11.71;71.84
77086;BME280;66014;53.134;18.006;2023-10-08T01:23:04;100940.86;;;11.68;71.98
77086;BME280;66014;53.134;18.006;2023-10-08T01:25:31;100937.84;;;11.67;71.78
77086;BME280;66014;53.134;18.006;2023-10-08T01:27:57;100940.89;;;11.65;71.52
77086;BME280;66014;53.134;18.006;2023-10-08T01:30:36;100939.41;;;11.64;71.40
77086;BME280;66014;53.134;18.006;2023-10-08T01:33:10;100951.44;;;11.61;71.13
77086;BME280;66014;53.134;18.006;2023-10-08T01:35:42;100962.26;;;11.60;71.38
77086;BME280;66014;53.134;18.006;2023-10-08T01:38:08;100972.64;;;11.61;71.29
77086;BME280;66014;53.134;18.006;2023-10-08T01:40:43;100977.64;;;11.59;71.11
77086;BME280;66014;53.134;18.006;2023-10-08T01:43:09;100984.83;;;11.57;70.48
77086;BME280;66014;53.134;18.006;2023-10-08T01:45:38;100993.79;;;11.52;70.34
77086;BME280;66014;53.134;18.006;2023-10-08T01:48:07;100998.98;;;11.48;70.35
77086;BME280;66014;53.134;18.006;2023-10-08T01:50:37;100998.29;;;11.46;70.37
77086;BME280;66014;53.134;18.006;2023-10-08T01:53:04;100995.43;;;11.45;70.24
77086;BME280;66014;53.134;18.006;2023-10-08T01:55:34;101007.36;;;11.45;70.32
77086;BME280;66014;53.134;18.006;2023-10-08T01:58:13;101014.20;;;11.43;70.24
77086;BME280;66014;53.134;18.006;2023-10-08T02:00:48;101024.90;;;11.42;70.16
77086;BME280;66014;53.134;18.006;2023-10-08T02:03:15;101029.67;;;11.40;69.70
77086;BME280;66014;53.134;18.006;2023-10-08T02:05:45;101028.41;;;11.37;69.49
77086;BME280;66014;53.134;18.006;2023-10-08T02:08:13;101024.23;;;11.33;68.59
77086;BME280;66014;53.134;18.006;2023-10-08T02:10:42;101025.31;;;11.31;68.78
77086;BME280;66014;53.134;18.006;2023-10-08T02:13:10;101023.67;;;11.30;68.60
77086;BME280;66014;53.134;18.006;2023-10-08T02:15:40;101029.11;;;11.27;68.22
77086;BME280;66014;53.134;18.006;2023-10-08T02:18:07;101040.19;;;11.24;67.79
77086;BME280;66014;53.134;18.006;2023-10-08T02:20:34;101041.00;;;11.20;67.99
77086;BME280;66014;53.134;18.006;2023-10-08T02:23:01;101041.55;;;11.18;67.87
77086;BME280;66014;53.134;18.006;2023-10-08T02:25:27;101052.77;;;11.16;67.38
77086;BME280;66014;53.134;18.006;2023-10-08T02:27:54;101048.55;;;11.13;67.18
77086;BME280;66014;53.134;18.006;2023-10-08T02:30:21;101053.58;;;11.12;67.13
77086;BME280;66014;53.134;18.006;2023-10-08T02:32:47;101056.21;;;11.11;66.78
77086;BME280;66014;53.134;18.006;2023-10-08T02:35:15;101060.77;;;11.10;66.77
77086;BME280;66014;53.134;18.006;2023-10-08T02:37:42;101065.11;;;11.09;66.69
77086;BME280;66014;53.134;18.006;2023-10-08T02:40:12;101069.65;;;11.07;66.37
77086;BME280;66014;53.134;18.006;2023-10-08T02:42:54;101075.02;;;11.03;66.51
77086;BME280;66014;53.134;18.006;2023-10-08T02:45:28;101079.51;;;11.01;66.59
77086;BME280;66014;53.134;18.006;2023-10-08T02:47:55;101086.86;;;11.00;66.71
77086;BME280;66014;53.134;18.006;2023-10-08T02:50:22;101086.05;;;10.97;66.56
77086;BME280;66014;53.134;18.006;2023-10-08T02:52:49;101094.41;;;10.92;66.50
77086;BME280;66014;53.134;18.006;2023-10-08T02:55:18;101098.24;;;10.85;66.14
77086;BME280;66014;53.134;18.006;2023-10-08T02:58:01;101106.44;;;10.76;65.37
77086;BME280;66014;53.134;18.006;2023-10-08T03:00:31;101108.45;;;10.70;65.25
77086;BME280;66014;53.134;18.006;2023-10-08T03:03:01;101115.45;;;10.64;64.90
77086;BME280;66014;53.134;18.006;2023-10-08T03:05:35;101120.05;;;10.58;64.87
77086;BME280;66014;53.134;18.006;2023-10-08T03:08:03;101121.23;;;10.52;64.79
77086;BME280;66014;53.134;18.006;2023-10-08T03:10:39;101119.03;;;10.46;64.45
77086;BME280;66014;53.134;18.006;2023-10-08T03:13:08;101126.48;;;10.39;64.84
77086;BME280;66014;53.134;18.006;2023-10-08T03:15:36;101133.34;;;10.35;64.86
77086;BME280;66014;53.134;18.006;2023-10-08T03:18:08;101141.88;;;10.32;64.83
77086;BME280;66014;53.134;18.006;2023-10-08T03:20:41;101147.09;;;10.28;64.52
77086;BME280;66014;53.134;18.006;2023-10-08T03:23:10;101153.87;;;10.23;64.41
77086;BME280;66014;53.134;18.006;2023-10-08T03:25:53;101158.44;;;10.15;64.38
77086;BME280;66014;53.134;18.006;2023-10-08T03:28:37;101162.66;;;10.08;64.53
77086;BME280;66014;53.134;18.006;2023-10-08T03:31:07;101170.98;;;10.05;64.62
77086;BME280;66014;53.134;18.006;2023-10-08T03:33:43;101172.06;;;10.02;64.58
77086;BME280;66014;53.134;18.006;2023-10-08T03:36:15;101168.85;;;9.97;64.44
77086;BME280;66014;53.134;18.006;2023-10-08T03:38:48;101173.23;;;9.91;64.14
77086;BME280;66014;53.134;18.006;2023-10-08T03:41:24;101179.80;;;9.85;64.11
77086;BME280;66014;53.134;18.006;2023-10-08T03:43:54;101177.92;;;9.81;63.83
77086;BME280;66014;53.134;18.006;2023-10-08T03:46:33;101181.15;;;9.76;63.59
77086;BME280;66014;53.134;18.006;2023-10-08T03:49:09;101184.27;;;9.68;62.76
77086;BME280;66014;53.134;18.006;2023-10-08T03:51:49;101189.25;;;9.62;62.92
77086;BME280;66014;53.134;18.006;2023-10-08T03:54:19;101192.71;;;9.57;62.99
77086;BME280;66014;53.134;18.006;2023-10-08T03:56:47;101195.73;;;9.52;62.91
77086;BME280;66014;53.134;18.006;2023-10-08T03:59:17;101195.17;;;9.47;63.01
77086;BME280;66014;53.134;18.006;2023-10-08T04:01:58;101206.45;;;9.43;63.23
77086;BME280;66014;53.134;18.006;2023-10-08T04:04:34;101200.75;;;9.40;63.10
77086;BME280;66014;53.134;18.006;2023-10-08T04:07:16;101207.25;;;9.35;62.73
77086;BME280;66014;53.134;18.006;2023-10-08T04:10:05;101212.84;;;9.26;62.49
77086;BME280;66014;53.134;18.006;2023-10-08T04:12:35;101215.11;;;9.21;62.59
77086;BME280;66014;53.134;18.006;2023-10-08T04:15:06;101227.92;;;9.18;62.71
77086;BME280;66014;53.134;18.006;2023-10-08T04:17:38;101234.03;;;9.16;62.67
77086;BME280;66014;53.134;18.006;2023-10-08T04:20:13;101235.55;;;9.13;62.61
77086;BME280;66014;53.134;18.006;2023-10-08T04:23:00;101239.71;;;9.09;62.42
77086;BME280;66014;53.134;18.006;2023-10-08T04:25:27;101241.17;;;9.05;62.58
77086;BME280;66014;53.134;18.006;2023-10-08T04:27:57;101243.08;;;9.02;62.37
77086;BME280;66014;53.134;18.006;2023-10-08T04:30:33;101238.51;;;9.00;62.49
77086;BME280;66014;53.134;18.006;2023-10-08T04:33:04;101243.73;;;8.99;62.64
77086;BME280;66014;53.134;18.006;2023-10-08T04:35:36;101248.30;;;8.97;62.67
77086;BME280;66014;53.134;18.006;2023-10-08T04:38:04;101249.63;;;8.96;62.79
77086;BME280;66014;53.134;18.006;2023-10-08T04:40:35;101252.08;;;8.95;62.48
77086;BME280;66014;53.134;18.006;2023-10-08T04:43:17;101259.09;;;8.89;62.43
77086;BME280;66014;53.134;18.006;2023-10-08T04:45:52;101264.70;;;8.84;62.45
77086;BME280;66014;53.134;18.006;2023-10-08T04:48:18;101266.08;;;8.81;62.53
77086;BME280;66014;53.134;18.006;2023-10-08T04:50:51;101270.98;;;8.78;62.36
77086;BME280;66014;53.134;18.006;2023-10-08T04:53:25;101277.09;;;8.75;62.61
77086;BME280;66014;53.134;18.006;2023-10-08T04:55:59;101280.33;;;8.73;62.58
77086;BME280;66014;53.134;18.006;2023-10-08T04:58:33;101282.23;;;8.72;62.71
77086;BME280;66014;53.134;18.006;2023-10-08T05:01:04;101283.55;;;8.71;62.84
77086;BME280;66014;53.134;18.006;2023-10-08T05:03:51;101284.47;;;8.69;62.78
77086;BME280;66014;53.134;18.006;2023-10-08T05:06:40;101288.40;;;8.65;62.84
77086;BME280;66014;53.134;18.006;2023-10-08T05:09:16;101293.41;;;8.59;62.99
77086;BME280;66014;53.134;18.006;2023-10-08T05:11:47;101295.57;;;8.57;63.10
77086;BME280;66014;53.134;18.006;2023-10-08T05:14:21;101302.36;;;8.54;63.11
77086;BME280;66014;53.134;18.006;2023-10-08T05:17:06;101310.48;;;8.51;63.30
77086;BME280;66014;53.134;18.006;2023-10-08T05:19:37;101314.80;;;8.48;63.42
77086;BME280;66014;53.134;18.006;2023-10-08T05:22:17;101325.37;;;8.47;63.45
77086;BME280;66014;53.134;18.006;2023-10-08T05:24:48;101330.29;;;8.47;63.51
77086;BME280;66014;53.134;18.006;2023-10-08T05:27:40;101336.48;;;8.47;63.50
77086;BME280;66014;53.134;18.006;2023-10-08T05:30:23;101343.15;;;8.48;63.48
77086;BME280;66014;53.134;18.006;2023-10-08T05:33:05;101348.11;;;8.49;63.55
77086;BME280;66014;53.134;18.006;2023-10-08T05:35:33;101348.48;;;8.49;63.45
77086;BME280;66014;53.134;18.006;2023-10-08T05:38:10;101356.47;;;8.47;63.46
77086;BME280;66014;53.134;18.006;2023-10-08T05:41:04;101363.90;;;8.42;63.44
77086;BME280;66014;53.134;18.006;2023-10-08T05:43:37;101371.67;;;8.38;63.52
77086;BME280;66014;53.134;18.006;2023-10-08T05:46:09;101383.58;;;8.35;63.63
77086;BME280;66014;53.134;18.006;2023-10-08T05:48:45;101386.11;;;8.37;63.74
77086;BME280;66014;53.134;18.006;2023-10-08T05:51:17;101392.34;;;8.38;63.75
77086;BME280;66014;53.134;18.006;2023-10-08T05:54:23;101394.78;;;8.42;63.68
77086;BME280;66014;53.134;18.006;2023-10-08T05:56:53;101409.23;;;8.48;63.56
77086;BME280;66014;53.134;18.006;2023-10-08T05:59:36;101414.09;;;8.55;63.30
77086;BME280;66014;53.134;18.006;2023-10-08T06:02:41;101417.27;;;8.78;63.14
77086;BME280;66014;53.134;18.006;2023-10-08T06:05:12;101425.15;;;9.06;62.52
77086;BME280;66014;53.134;18.006;2023-10-08T06:10:15;101433.78;;;9.67;61.69
77086;BME280;66014;53.134;18.006;2023-10-08T06:13:04;101436.92;;;10.04;61.10
77086;BME280;66014;53.134;18.006;2023-10-08T06:15:51;101440.63;;;10.42;60.16
77086;BME280;66014;53.134;18.006;2023-10-08T06:18:24;101438.67;;;10.74;59.24
77086;BME280;66014;53.134;18.006;2023-10-08T06:21:01;101443.05;;;11.06;58.78
77086;BME280;66014;53.134;18.006;2023-10-08T06:23:34;101445.85;;;11.41;57.99
77086;BME280;66014;53.134;18.006;2023-10-08T06:26:02;101446.24;;;11.77;57.64
77086;BME280;66014;53.134;18.006;2023-10-08T06:28:42;101446.45;;;12.18;56.53
77086;BME280;66014;53.134;18.006;2023-10-08T06:31:10;101453.02;;;12.58;55.90
77086;BME280;66014;53.134;18.006;2023-10-08T06:33:44;101454.59;;;13.00;55.07
77086;BME280;66014;53.134;18.006;2023-10-08T06:36:11;101459.67;;;13.41;54.33
77086;BME280;66014;53.134;18.006;2023-10-08T06:38:39;101466.77;;;13.85;53.32
77086;BME280;66014;53.134;18.006;2023-10-08T06:41:07;101473.38;;;14.24;52.25
77086;BME280;66014;53.134;18.006;2023-10-08T06:43:45;101483.70;;;14.60;51.09
77086;BME280;66014;53.134;18.006;2023-10-08T06:46:31;101488.46;;;14.95;50.10
77086;BME280;66014;53.134;18.006;2023-10-08T06:49:02;101492.49;;;15.23;48.92
77086;BME280;66014;53.134;18.006;2023-10-08T06:51:29;101496.52;;;15.53;48.26
77086;BME280;66014;53.134;18.006;2023-10-08T06:53:57;101499.38;;;15.84;48.52
77086;BME280;66014;53.134;18.006;2023-10-08T06:56:28;101500.66;;;16.34;47.90
77086;BME280;66014;53.134;18.006;2023-10-08T06:58:54;101504.80;;;16.77;46.54
77086;BME280;66014;53.134;18.006;2023-10-08T07:01:21;101499.51;;;17.05;45.52
77086;BME280;66014;53.134;18.006;2023-10-08T07:03:49;101503.02;;;17.43;45.12
77086;BME280;66014;53.134;18.006;2023-10-08T07:06:15;101505.09;;;17.87;44.27
77086;BME280;66014;53.134;18.006;2023-10-08T07:09:01;101508.89;;;18.26;42.67
77086;BME280;66014;53.134;18.006;2023-10-08T07:11:32;101517.79;;;18.42;41.27
77086;BME280;66014;53.134;18.006;2023-10-08T07:14:01;101521.36;;;18.57;41.35
77086;BME280;66014;53.134;18.006;2023-10-08T07:16:28;101522.06;;;18.80;40.13
77086;BME280;66014;53.134;18.006;2023-10-08T07:18:54;101525.41;;;19.04;40.41
77086;BME280;66014;53.134;18.006;2023-10-08T07:21:28;101531.45;;;19.40;39.68
77086;BME280;66014;53.134;18.006;2023-10-08T07:24:15;101529.76;;;19.76;37.80
77086;BME280;66014;53.134;18.006;2023-10-08T07:26:44;101535.70;;;19.84;36.88
77086;BME280;66014;53.134;18.006;2023-10-08T07:29:15;101541.52;;;19.92;37.37
77086;BME280;66014;53.134;18.006;2023-10-08T07:31:47;101541.48;;;20.18;36.78
77086;BME280;66014;53.134;18.006;2023-10-08T07:34:26;101543.11;;;20.45;36.29
77086;BME280;66014;53.134;18.006;2023-10-08T07:37:03;101551.45;;;20.84;36.13
77086;BME280;66014;53.134;18.006;2023-10-08T07:39:32;101548.80;;;21.18;34.85
77086;BME280;66014;53.134;18.006;2023-10-08T07:42:26;101555.52;;;21.32;34.57
77086;BME280;66014;53.134;18.006;2023-10-08T07:45:16;101566.98;;;21.65;33.80
77086;BME280;66014;53.134;18.006;2023-10-08T07:47:47;101569.85;;;21.74;33.04
77086;BME280;66014;53.134;18.006;2023-10-08T07:50:17;101566.27;;;21.87;33.30
77086;BME280;66014;53.134;18.006;2023-10-08T07:52:52;101571.66;;;22.07;32.67
77086;BME280;66014;53.134;18.006;2023-10-08T07:55:30;101568.54;;;22.18;31.69
77086;BME280;66014;53.134;18.006;2023-10-08T07:57:59;101566.86;;;22.22;31.29
77086;BME280;66014;53.134;18.006;2023-10-08T08:00:25;101568.67;;;22.29;31.74
77086;BME280;66014;53.134;18.006;2023-10-08T08:02:56;101576.02;;;22.52;30.64
77086;BME280;66014;53.134;18.006;2023-10-08T08:05:24;101573.52;;;22.70;30.89
77086;BME280;66014;53.134;18.006;2023-10-08T08:07:51;101583.14;;;22.95;30.68
77086;BME280;66014;53.134;18.006;2023-10-08T08:10:19;101583.30;;;23.15;30.03
77086;BME280;66014;53.134;18.006;2023-10-08T08:12:49;101586.03;;;23.24;29.66
77086;BME280;66014;53.134;18.006;2023-10-08T08:15:17;101585.63;;;23.45;29.67
77086;BME280;66014;53.134;18.006;2023-10-08T08:17:46;101585.74;;;23.58;28.27
77086;BME280;66014;53.134;18.006;2023-10-08T08:20:19;101584.20;;;23.46;28.85
77086;BME280;66014;53.134;18.006;2023-10-08T08:23:02;101589.72;;;23.46;28.32
77086;BME280;66014;53.134;18.006;2023-10-08T08:25:41;101586.55;;;23.45;28.35
77086;BME280;66014;53.134;18.006;2023-10-08T08:28:27;101596.36;;;23.54;27.04
77086;BME280;66014;53.134;18.006;2023-10-08T08:31:04;101601.10;;;23.30;27.91
77086;BME280;66014;53.134;18.006;2023-10-08T08:33:31;101605.18;;;23.35;27.90
77086;BME280;66014;53.134;18.006;2023-10-08T08:36:19;101607.77;;;23.44;27.08
77086;BME280;66014;53.134;18.006;2023-10-08T08:38:46;101608.81;;;23.48;27.90
77086;BME280;66014;53.134;18.006;2023-10-08T08:41:12;101609.46;;;23.71;27.08
77086;BME280;66014;53.134;18.006;2023-10-08T08:43:39;101608.47;;;23.70;26.74
77086;BME280;66014;53.134;18.006;2023-10-08T08:46:13;101611.83;;;23.48;26.47
77086;BME280;66014;53.134;18.006;2023-10-08T08:48:40;101617.02;;;23.32;26.95
77086;BME280;66014;53.134;18.006;2023-10-08T08:51:07;101613.93;;;23.30;26.56
77086;BME280;66014;53.134;18.006;2023-10-08T08:53:39;101623.95;;;23.26;26.83
77086;BME280;66014;53.134;18.006;2023-10-08T08:56:07;101624.55;;;23.20;25.95
77086;BME280;66014;53.134;18.006;2023-10-08T08:58:36;101621.23;;;23.05;26.22
77086;BME280;66014;53.134;18.006;2023-10-08T09:01:06;101623.30;;;23.00;26.88
77086;BME280;66014;53.134;18.006;2023-10-08T09:03:35;101625.34;;;23.23;26.89
77086;BME280;66014;53.134;18.006;2023-10-08T09:06:03;101632.96;;;23.49;26.52
77086;BME280;66014;53.134;18.006;2023-10-08T09:08:35;101630.95;;;23.69;26.21
77086;BME280;66014;53.134;18.006;2023-10-08T09:11:02;101629.44;;;23.69;25.35
77086;BME280;66014;53.134;18.006;2023-10-08T09:13:31;101632.32;;;23.59;25.95
77086;BME280;66014;53.134;18.006;2023-10-08T09:16:12;101634.55;;;23.75;25.93
77086;BME280;66014;53.134;18.006;2023-10-08T09:18:41;101632.54;;;23.75;25.33
77086;BME280;66014;53.134;18.006;2023-10-08T09:21:12;101636.92;;;23.66;25.02
77086;BME280;66014;53.134;18.006;2023-10-08T09:23:43;101635.96;;;23.50;25.51
77086;BME280;66014;53.134;18.006;2023-10-08T09:26:11;101639.30;;;23.46;25.18
77086;BME280;66014;53.134;18.006;2023-10-08T09:28:47;101640.01;;;23.44;25.42
77086;BME280;66014;53.134;18.006;2023-10-08T09:31:18;101640.98;;;23.41;25.48
77086;BME280;66014;53.134;18.006;2023-10-08T09:34:00;101647.66;;;23.37;24.84
77086;BME280;66014;53.134;18.006;2023-10-08T09:36:39;101641.80;;;23.13;25.24
77086;BME280;66014;53.134;18.006;2023-10-08T09:39:29;101639.86;;;23.09;25.27
77086;BME280;66014;53.134;18.006;2023-10-08T10:07:43;101660.31;;;22.07;25.20
77086;BME280;66014;53.134;18.006;2023-10-08T10:10:43;101661.84;;;22.05;24.89
77086;BME280;66014;53.134;18.006;2023-10-08T10:13:43;101669.02;;;21.91;25.66
77086;BME280;66014;53.134;18.006;2023-10-08T10:17:10;101663.85;;;22.14;25.88
77086;BME280;66014;53.134;18.006;2023-10-08T10:19:42;101662.63;;;22.30;24.88
77086;BME280;66014;53.134;18.006;2023-10-08T10:22:27;101666.25;;;22.19;24.55
77086;BME280;66014;53.134;18.006;2023-10-08T10:24:56;101666.36;;;21.97;24.98
77086;BME280;66014;53.134;18.006;2023-10-08T10:27:24;101660.84;;;21.80;25.03
77086;BME280;66014;53.134;18.006;2023-10-08T10:30:01;101658.02;;;21.54;25.06
77086;BME280;66014;53.134;18.006;2023-10-08T10:32:30;101659.67;;;21.51;25.74
77086;BME280;66014;53.134;18.006;2023-10-08T10:34:57;101661.83;;;21.52;26.08
77086;BME280;66014;53.134;18.006;2023-10-08T10:37:27;101662.59;;;21.54;25.25
77086;BME280;66014;53.134;18.006;2023-10-08T10:40:07;101663.65;;;21.36;25.41
77086;BME280;66014;53.134;18.006;2023-10-08T10:42:39;101666.37;;;21.13;25.96
77086;BME280;66014;53.134;18.006;2023-10-08T10:45:14;101662.63;;;21.07;26.10
77086;BME280;66014;53.134;18.006;2023-10-08T10:48:07;101671.39;;;20.84;26.13
77086;BME280;66014;53.134;18.006;2023-10-08T10:50:51;101668.97;;;20.86;26.45
77086;BME280;66014;53.134;18.006;2023-10-08T10:53:40;101669.64;;;21.10;26.42
77086;BME280;66014;53.134;18.006;2023-10-08T10:56:24;101662.08;;;21.12;24.99
77086;BME280;66014;53.134;18.006;2023-10-08T10:59:03;101662.29;;;20.71;24.64
77086;BME280;66014;53.134;18.006;2023-10-08T11:01:51;101663.85;;;20.35;25.19
77086;BME280;66014;53.134;18.006;2023-10-08T11:04:57;101680.44;;;20.08;25.40
77086;BME280;66014;53.134;18.006;2023-10-08T11:08:19;101684.50;;;19.77;24.25
77086;BME280;66014;53.134;18.006;2023-10-08T11:11:03;101681.98;;;19.44;24.82
77086;BME280;66014;53.134;18.006;2023-10-08T11:13:50;101688.90;;;19.36;25.24
77086;BME280;66014;53.134;18.006;2023-10-08T11:16:29;101682.27;;;19.24;25.14
77086;BME280;66014;53.134;18.006;2023-10-08T11:18:58;101680.06;;;19.14;25.15
77086;BME280;66014;53.134;18.006;2023-10-08T11:21:27;101673.42;;;19.05;24.84
77086;BME280;66014;53.134;18.006;2023-10-08T11:24:00;101675.58;;;18.93;25.41
77086;BME280;66014;53.134;18.006;2023-10-08T11:34:03;101674.65;;;18.79;24.46
77086;BME280;66014;53.134;18.006;2023-10-08T11:37:26;101675.02;;;18.69;24.10
77086;BME280;66014;53.134;18.006;2023-10-08T11:39:53;101679.73;;;18.57;24.43
77086;BME280;66014;53.134;18.006;2023-10-08T11:42:25;101680.29;;;18.51;24.38
77086;BME280;66014;53.134;18.006;2023-10-08T11:45:07;101682.40;;;18.52;24.55
77086;BME280;66014;53.134;18.006;2023-10-08T11:47:53;101689.15;;;18.46;24.38
77086;BME280;66014;53.134;18.006;2023-10-08T11:50:27;101688.27;;;18.35;23.83
77086;BME280;66014;53.134;18.006;2023-10-08T11:52:59;101694.51;;;18.21;24.26
77086;BME280;66014;53.134;18.006;2023-10-08T11:55:34;101687.71;;;18.21;24.14
77086;BME280;66014;53.134;18.006;2023-10-08T11:58:03;101689.20;;;18.14;24.44
77086;BME280;66014;53.134;18.006;2023-10-08T12:00:43;101696.17;;;18.20;24.94
77086;BME280;66014;53.134;18.006;2023-10-08T12:11:51;101699.91;;;18.31;24.57
77086;BME280;66014;53.134;18.006;2023-10-08T12:18:48;101702.56;;;18.24;24.55
77086;BME280;66014;53.134;18.006;2023-10-08T12:30:29;101703.94;;;18.28;24.14
77086;BME280;66014;53.134;18.006;2023-10-08T12:33:55;101705.26;;;18.26;23.68
77086;BME280;66014;53.134;18.006;2023-10-08T12:36:53;101706.41;;;18.15;23.91
77086;BME280;66014;53.134;18.006;2023-10-08T12:39:20;101710.67;;;18.11;23.74
77086;BME280;66014;53.134;18.006;2023-10-08T12:41:54;101711.71;;;18.05;23.49
77086;BME280;66014;53.134;18.006;2023-10-08T12:44:23;101716.50;;;18.01;24.21
77086;BME280;66014;53.134;18.006;2023-10-08T12:46:49;101716.96;;;17.99;24.13
77086;BME280;66014;53.134;18.006;2023-10-08T12:49:15;101715.84;;;17.93;24.44
77086;BME280;66014;53.134;18.006;2023-10-08T12:51:41;101716.86;;;17.89;24.48
77086;BME280;66014;53.134;18.006;2023-10-08T12:54:11;101714.50;;;17.90;24.57
77086;BME280;66014;53.134;18.006;2023-10-08T12:56:37;101709.75;;;17.91;24.36
77086;BME280;66014;53.134;18.006;2023-10-08T12:59:15;101713.28;;;17.86;24.14
77086;BME280;66014;53.134;18.006;2023-10-08T13:01:48;101714.96;;;17.76;24.28
77086;BME280;66014;53.134;18.006;2023-10-08T13:04:18;101713.74;;;17.68;24.40
77086;BME280;66014;53.134;18.006;2023-10-08T13:06:53;101719.07;;;17.60;24.70
77086;BME280;66014;53.134;18.006;2023-10-08T13:09:26;101716.54;;;17.52;24.87
77086;BME280;66014;53.134;18.006;2023-10-08T13:11:53;101713.11;;;17.39;24.66
77086;BME280;66014;53.134;18.006;2023-10-08T13:14:19;101714.36;;;17.37;25.18
77086;BME280;66014;53.134;18.006;2023-10-08T13:16:48;101710.24;;;17.35;24.63
77086;BME280;66014;53.134;18.006;2023-10-08T13:19:23;101709.23;;;17.32;24.96
77086;BME280;66014;53.134;18.006;2023-10-08T13:21:51;101712.36;;;17.30;25.14
77086;BME280;66014;53.134;18.006;2023-10-08T13:24:20;101715.14;;;17.25;25.09
77086;BME280;66014;53.134;18.006;2023-10-08T13:26:47;101726.13;;;17.29;25.25
77086;BME280;66014;53.134;18.006;2023-10-08T13:29:14;101725.78;;;17.30;24.89
77086;BME280;66014;53.134;18.006;2023-10-08T13:31:40;101729.42;;;17.26;25.05
77086;BME280;66014;53.134;18.006;2023-10-08T13:34:06;101738.44;;;17.20;25.21
77086;BME280;66014;53.134;18.006;2023-10-08T13:36:38;101738.04;;;17.16;25.32
77086;BME280;66014;53.134;18.006;2023-10-08T13:39:05;101735.49;;;17.15;25.38
77086;BME280;66014;53.134;18.006;2023-10-08T13:41:36;101736.92;;;17.13;25.49
77086;BME280;66014;53.134;18.006;2023-10-08T13:44:04;101741.35;;;17.11;25.22
77086;BME280;66014;53.134;18.006;2023-10-08T13:46:31;101737.81;;;17.09;25.51
77086;BME280;66014;53.134;18.006;2023-10-08T13:49:02;101744.73;;;17.03;25.16
77086;BME280;66014;53.134;18.006;2023-10-08T13:51:28;101744.04;;;16.94;25.40
77086;BME280;66014;53.134;18.006;2023-10-08T13:53:56;101749.07;;;16.84;25.38
77086;BME280;66014;53.134;18.006;2023-10-08T13:56:28;101752.70;;;16.77;25.02
77086;BME280;66014;53.134;18.006;2023-10-08T13:58:57;101749.45;;;16.64;25.27
77086;BME280;66014;53.134;18.006;2023-10-08T14:01:39;101752.17;;;16.63;25.46
77086;BME280;66014;53.134;18.006;2023-10-08T14:04:06;101755.81;;;16.64;25.40
77086;BME280;66014;53.134;18.006;2023-10-08T14:06:34;101760.77;;;16.61;25.21
77086;BME280;66014;53.134;18.006;2023-10-08T14:09:02;101759.54;;;16.56;25.32
77086;BME280;66014;53.134;18.006;2023-10-08T14:11:35;101758.20;;;16.54;25.22
77086;BME280;66014;53.134;18.006;2023-10-08T14:14:01;101756.40;;;16.49;25.12
77086;BME280;66014;53.134;18.006;2023-10-08T14:16:46;101756.65;;;16.46;25.18
77086;BME280;66014;53.134;18.006;2023-10-08T14:19:21;101760.45;;;16.38;25.38